sensor_id;sensor_type;location;lat;lon;timestamp;pressure;altitude;pressure_sealevel;temperature;humidity
11621;BME280;5866;49.094;11.900;2022-10-16T00:01:20;96189.47;;;16.76;100.00
11621;BME280;5866;49.094;11.900;2022-10-16T00:03:48;96197.63;;;16.54;100.00
11621;BME280;5866;49.094;11.900;2022-10-16T00:06:18;96197.28;;;16.71;100.00
11621;BME280;5866;49.094;11.900;2022-10-16T00:08:48;96205.53;;;16.76;100.00
11621;BME280;5866;49.094;11.900;2022-10-16T00:11:18;96206.59;;;16.88;100.00
11621;BME280;5866;49.094;11.900;2022-10-16T00:13:49;96210.88;;;16.69;100.00
11621;BME280;5866;49.094;11.900;2022-10-16T00:16:17;96204.31;;;16.85;100.00
11621;BME280;5866;49.094;11.900;2022-10-16T00:18:45;96204.38;;;16.98;100.00
11621;BME280;5866;49.094;11.900;2022-10-16T00:21:14;96199.84;;;16.98;100.00
11621;BME280;5866;49.094;11.900;2022-10-16T00:23:42;96208.13;;;17.16;100.00
11621;BME280;5866;49.094;11.900;2022-10-16T00:26:13;96205.91;;;17.46;100.00
11621;BME280;5866;49.094;11.900;2022-10-16T00:28:41;96204.91;;;17.54;100.00
11621;BME280;5866;49.094;11.900;2022-10-16T00:31:11;96212.75;;;17.68;100.00
11621;BME280;5866;49.094;11.900;2022-10-16T00:33:39;96201.53;;;17.38;100.00
11621;BME280;5866;49.094;11.900;2022-10-16T00:36:10;96194.59;;;17.51;100.00
11621;BME280;5866;49.094;11.900;2022-10-16T00:38:38;96197.66;;;17.47;100.00
11621;BME280;5866;49.094;11.900;2022-10-16T00:41:06;96198.66;;;17.27;100.00
11621;BME280;5866;49.094;11.900;2022-10-16T00:43:40;96202.38;;;17.19;100.00
11621;BME280;5866;49.094;11.900;2022-10-16T00:46:14;96197.44;;;17.36;100.00
11621;BME280;5866;49.094;11.900;2022-10-16T00:48:45;96193.38;;;17.53;100.00
11621;BME280;5866;49.094;11.900;2022-10-16T00:51:17;96201.38;;;17.60;100.00
11621;BME280;5866;49.094;11.900;2022-10-16T00:53:46;96206.91;;;17.45;100.00
11621;BME280;5866;49.094;11.900;2022-10-16T00:56:14;96211.69;;;17.50;100.00
11621;BME280;5866;49.094;11.900;2022-10-16T00:58:43;96208.81;;;17.64;100.00
11621;BME280;5866;49.094;11.900;2022-10-16T01:01:11;96205.75;;;17.80;100.00
11621;BME280;5866;49.094;11.900;2022-10-16T01:03:39;96199.13;;;17.83;100.00
11621;BME280;5866;49.094;11.900;2022-10-16T01:06:16;96198.31;;;17.76;100.00
11621;BME280;5866;49.094;11.900;2022-10-16T01:08:55;96206.97;;;17.78;100.00
11621;BME280;5866;49.094;11.900;2022-10-16T01:11:32;96205.31;;;17.51;100.00
11621;BME280;5866;49.094;11.900;2022-10-16T01:14:07;96218.00;;;17.16;100.00
11621;BME280;5866;49.094;11.900;2022-10-16T01:16:40;96226.72;;;16.71;100.00
11621;BME280;5866;49.094;11.900;2022-10-16T01:19:15;96227.34;;;16.73;100.00
11621;BME280;5866;49.094;11.900;2022-10-16T01:21:46;96233.09;;;16.63;100.00
11621;BME280;5866;49.094;11.900;2022-10-16T01:24:18;96233.72;;;16.72;100.00
11621;BME280;5866;49.094;11.900;2022-10-16T01:27:06;96229.28;;;16.92;100.00
11621;BME280;5866;49.094;11.900;2022-10-16T01:29:39;96237.75;;;16.95;100.00
11621;BME280;5866;49.094;11.900;2022-10-16T01:32:11;96230.78;;;17.01;100.00
11621;BME280;5866;49.094;11.900;2022-10-16T01:34:48;96236.78;;;17.16;100.00
11621;BME280;5866;49.094;11.900;2022-10-16T01:37:25;96242.97;;;17.23;100.00
11621;BME280;5866;49.094;11.900;2022-10-16T01:39:58;96241.31;;;17.22;100.00
11621;BME280;5866;49.094;11.900;2022-10-16T01:42:32;96241.78;;;17.45;100.00
11621;BME280;5866;49.094;11.900;2022-10-16T01:45:02;96245.25;;;17.26;100.00
11621;BME280;5866;49.094;11.900;2022-10-16T01:47:33;96240.13;;;17.31;100.00
11621;BME280;5866;49.094;11.900;2022-10-16T01:50:03;96233.13;;;17.43;100.00
11621;BME280;5866;49.094;11.900;2022-10-16T01:52:33;96237.47;;;17.44;100.00
11621;BME280;5866;49.094;11.900;2022-10-16T01:55:04;96244.47;;;17.32;100.00
11621;BME280;5866;49.094;11.900;2022-10-16T01:57:36;96239.22;;;17.04;100.00
11621;BME280;5866;49.094;11.900;2022-10-16T02:00:09;96252.03;;;16.61;100.00
11621;BME280;5866;49.094;11.900;2022-10-16T02:02:38;96253.75;;;16.76;100.00
11621;BME280;5866;49.094;11.900;2022-10-16T02:05:14;96248.09;;;16.57;100.00
11621;BME280;5866;49.094;11.900;2022-10-16T02:07:44;96257.41;;;16.34;100.00
11621;BME280;5866;49.094;11.900;2022-10-16T02:10:11;96265.34;;;16.21;100.00
11621;BME280;5866;49.094;11.900;2022-10-16T02:12:43;96262.28;;;16.51;100.00
11621;BME280;5866;49.094;11.900;2022-10-16T02:15:13;96254.38;;;16.43;100.00
11621;BME280;5866;49.094;11.900;2022-10-16T02:17:40;96261.91;;;16.54;100.00
11621;BME280;5866;49.094;11.900;2022-10-16T02:20:09;96263.03;;;16.45;100.00
11621;BME280;5866;49.094;11.900;2022-10-16T02:22:41;96255.34;;;16.63;100.00
11621;BME280;5866;49.094;11.900;2022-10-16T02:25:13;96244.09;;;16.81;100.00
11621;BME280;5866;49.094;11.900;2022-10-16T02:27:50;96238.88;;;16.66;100.00
11621;BME280;5866;49.094;11.900;2022-10-16T02:30:21;96247.97;;;16.72;100.00
11621;BME280;5866;49.094;11.900;2022-10-16T02:32:52;96239.94;;;16.79;100.00
11621;BME280;5866;49.094;11.900;2022-10-16T02:35:22;96252.09;;;16.75;100.00
11621;BME280;5866;49.094;11.900;2022-10-16T02:37:51;96255.75;;;16.60;100.00
11621;BME280;5866;49.094;11.900;2022-10-16T02:40:19;96264.84;;;16.73;100.00
11621;BME280;5866;49.094;11.900;2022-10-16T02:42:53;96275.19;;;16.76;100.00
11621;BME280;5866;49.094;11.900;2022-10-16T02:45:21;96275.50;;;16.59;100.00
11621;BME280;5866;49.094;11.900;2022-10-16T02:47:49;96277.31;;;16.93;100.00
11621;BME280;5866;49.094;11.900;2022-10-16T02:50:17;96272.13;;;16.85;100.00
11621;BME280;5866;49.094;11.900;2022-10-16T02:52:44;96265.63;;;17.14;100.00
11621;BME280;5866;49.094;11.900;2022-10-16T02:55:12;96262.94;;;17.01;100.00
11621;BME280;5866;49.094;11.900;2022-10-16T02:57:39;96266.50;;;17.27;100.00
11621;BME280;5866;49.094;11.900;2022-10-16T03:00:12;96254.75;;;17.35;100.00
11621;BME280;5866;49.094;11.900;2022-10-16T03:02:40;96255.97;;;17.26;100.00
11621;BME280;5866;49.094;11.900;2022-10-16T03:05:09;96266.31;;;17.29;100.00
11621;BME280;5866;49.094;11.900;2022-10-16T03:07:37;96270.41;;;17.25;100.00
11621;BME280;5866;49.094;11.900;2022-10-16T03:10:05;96270.84;;;17.28;100.00
11621;BME280;5866;49.094;11.900;2022-10-16T03:12:33;96269.19;;;17.27;100.00
11621;BME280;5866;49.094;11.900;2022-10-16T03:15:01;96274.34;;;17.29;100.00
11621;BME280;5866;49.094;11.900;2022-10-16T03:17:31;96282.81;;;17.32;100.00
11621;BME280;5866;49.094;11.900;2022-10-16T03:19:59;96270.84;;;17.35;100.00
11621;BME280;5866;49.094;11.900;2022-10-16T03:22:26;96274.53;;;17.21;100.00
11621;BME280;5866;49.094;11.900;2022-10-16T03:24:54;96275.72;;;17.12;100.00
11621;BME280;5866;49.094;11.900;2022-10-16T03:27:21;96273.28;;;17.17;100.00
11621;BME280;5866;49.094;11.900;2022-10-16T03:29:49;96269.19;;;17.27;100.00
11621;BME280;5866;49.094;11.900;2022-10-16T03:32:17;96274.16;;;17.37;100.00
11621;BME280;5866;49.094;11.900;2022-10-16T03:34:46;96269.00;;;17.35;100.00
11621;BME280;5866;49.094;11.900;2022-10-16T03:37:13;96272.47;;;17.23;100.00
11621;BME280;5866;49.094;11.900;2022-10-16T03:39:41;96268.78;;;17.37;100.00
11621;BME280;5866;49.094;11.900;2022-10-16T03:42:08;96266.78;;;17.52;100.00
11621;BME280;5866;49.094;11.900;2022-10-16T03:44:36;96265.13;;;17.51;100.00
11621;BME280;5866;49.094;11.900;2022-10-16T03:47:03;96261.78;;;17.49;100.00
11621;BME280;5866;49.094;11.900;2022-10-16T03:49:31;96269.72;;;17.57;100.00
11621;BME280;5866;49.094;11.900;2022-10-16T03:52:00;96272.09;;;17.39;100.00
11621;BME280;5866;49.094;11.900;2022-10-16T03:54:27;96271.44;;;17.30;100.00
11621;BME280;5866;49.094;11.900;2022-10-16T03:56:55;96269.16;;;17.21;100.00
11621;BME280;5866;49.094;11.900;2022-10-16T03:59:22;96265.06;;;17.25;100.00
11621;BME280;5866;49.094;11.900;2022-10-16T04:01:50;96277.63;;;17.24;100.00
11621;BME280;5866;49.094;11.900;2022-10-16T04:04:18;96277.00;;;17.22;100.00
11621;BME280;5866;49.094;11.900;2022-10-16T04:06:45;96277.41;;;17.19;100.00
11621;BME280;5866;49.094;11.900;2022-10-16T04:09:14;96278.84;;;17.22;100.00
11621;BME280;5866;49.094;11.900;2022-10-16T04:11:42;96279.47;;;17.17;100.00
11621;BME280;5866;49.094;11.900;2022-10-16T04:14:09;96278.84;;;17.09;100.00
11621;BME280;5866;49.094;11.900;2022-10-16T04:16:37;96282.72;;;17.00;100.00
11621;BME280;5866;49.094;11.900;2022-10-16T04:19:05;96278.41;;;17.12;100.00
11621;BME280;5866;49.094;11.900;2022-10-16T04:21:32;96285.16;;;16.95;100.00
11621;BME280;5866;49.094;11.900;2022-10-16T04:24:00;96283.03;;;16.77;100.00
11621;BME280;5866;49.094;11.900;2022-10-16T04:26:29;96280.22;;;16.57;100.00
11621;BME280;5866;49.094;11.900;2022-10-16T04:28:56;96290.69;;;15.97;100.00
11621;BME280;5866;49.094;11.900;2022-10-16T04:31:24;96292.88;;;15.87;100.00
11621;BME280;5866;49.094;11.900;2022-10-16T04:33:52;96302.59;;;15.95;100.00
11621;BME280;5866;49.094;11.900;2022-10-16T04:36:19;96309.44;;;15.76;100.00
11621;BME280;5866;49.094;11.900;2022-10-16T04:38:52;96313.72;;;16.19;100.00
11621;BME280;5866;49.094;11.900;2022-10-16T04:41:19;96308.88;;;16.36;100.00
11621;BME280;5866;49.094;11.900;2022-10-16T04:43:48;96305.16;;;16.58;100.00
11621;BME280;5866;49.094;11.900;2022-10-16T04:46:16;96306.03;;;16.37;100.00
11621;BME280;5866;49.094;11.900;2022-10-16T04:48:43;96310.94;;;16.06;100.00
11621;BME280;5866;49.094;11.900;2022-10-16T04:51:11;96310.94;;;16.06;100.00
11621;BME280;5866;49.094;11.900;2022-10-16T04:53:38;96315.69;;;16.04;100.00
11621;BME280;5866;49.094;11.900;2022-10-16T04:56:06;96311.63;;;16.42;100.00
11621;BME280;5866;49.094;11.900;2022-10-16T04:58:33;96316.16;;;16.14;100.00
11621;BME280;5866;49.094;11.900;2022-10-16T05:01:02;96317.09;;;16.07;100.00
11621;BME280;5866;49.094;11.900;2022-10-16T05:03:30;96316.31;;;16.06;100.00
11621;BME280;5866;49.094;11.900;2022-10-16T05:05:58;96313.53;;;16.21;100.00
11621;BME280;5866;49.094;11.900;2022-10-16T05:08:25;96318.72;;;16.01;100.00
11621;BME280;5866;49.094;11.900;2022-10-16T05:10:53;96321.66;;;16.06;100.00
11621;BME280;5866;49.094;11.900;2022-10-16T05:13:20;96315.78;;;15.96;100.00
11621;BME280;5866;49.094;11.900;2022-10-16T05:15:49;96327.31;;;15.97;100.00
11621;BME280;5866;49.094;11.900;2022-10-16T05:18:18;96327.97;;;15.77;100.00
11621;BME280;5866;49.094;11.900;2022-10-16T05:20:46;96335.69;;;15.66;100.00
11621;BME280;5866;49.094;11.900;2022-10-16T05:23:13;96332.66;;;15.54;100.00
11621;BME280;5866;49.094;11.900;2022-10-16T05:25:41;96325.00;;;15.66;100.00
11621;BME280;5866;49.094;11.900;2022-10-16T05:28:08;96327.53;;;15.74;100.00
11621;BME280;5866;49.094;11.900;2022-10-16T05:30:37;96317.28;;;15.77;100.00
11621;BME280;5866;49.094;11.900;2022-10-16T05:33:04;96309.72;;;15.81;100.00
11621;BME280;5866;49.094;11.900;2022-10-16T05:35:33;96294.09;;;15.63;100.00
11621;BME280;5866;49.094;11.900;2022-10-16T05:38:01;96293.28;;;15.63;100.00
11621;BME280;5866;49.094;11.900;2022-10-16T05:40:28;96299.16;;;16.28;100.00
11621;BME280;5866;49.094;11.900;2022-10-16T05:42:56;96303.84;;;16.47;100.00
11621;BME280;5866;49.094;11.900;2022-10-16T05:45:23;96300.69;;;16.65;100.00
11621;BME280;5866;49.094;11.900;2022-10-16T05:47:51;96299.13;;;16.84;100.00
11621;BME280;5866;49.094;11.900;2022-10-16T05:50:18;96305.88;;;16.45;100.00
11621;BME280;5866;49.094;11.900;2022-10-16T05:52:47;96310.19;;;16.12;100.00
11621;BME280;5866;49.094;11.900;2022-10-16T05:55:15;96313.72;;;15.92;100.00
11621;BME280;5866;49.094;11.900;2022-10-16T05:57:42;96330.19;;;15.95;100.00
11621;BME280;5866;49.094;11.900;2022-10-16T06:00:10;96325.50;;;15.76;100.00
11621;BME280;5866;49.094;11.900;2022-10-16T06:02:38;96317.97;;;15.65;100.00
11621;BME280;5866;49.094;11.900;2022-10-16T06:05:06;96328.16;;;15.55;100.00
11621;BME280;5866;49.094;11.900;2022-10-16T06:07:34;96334.78;;;15.59;100.00
11621;BME280;5866;49.094;11.900;2022-10-16T06:10:04;96333.50;;;15.55;100.00
11621;BME280;5866;49.094;11.900;2022-10-16T06:12:32;96343.38;;;15.54;100.00
11621;BME280;5866;49.094;11.900;2022-10-16T06:14:59;96341.66;;;15.47;100.00
11621;BME280;5866;49.094;11.900;2022-10-16T06:17:27;96358.72;;;15.46;100.00
11621;BME280;5866;49.094;11.900;2022-10-16T06:19:55;96367.19;;;15.49;100.00
11621;BME280;5866;49.094;11.900;2022-10-16T06:22:22;96363.81;;;15.62;100.00
11621;BME280;5866;49.094;11.900;2022-10-16T06:24:50;96366.50;;;15.62;100.00
11621;BME280;5866;49.094;11.900;2022-10-16T06:27:19;96369.69;;;15.72;100.00
11621;BME280;5866;49.094;11.900;2022-10-16T06:29:46;96373.84;;;15.96;100.00
11621;BME280;5866;49.094;11.900;2022-10-16T06:32:14;96379.97;;;16.11;100.00
11621;BME280;5866;49.094;11.900;2022-10-16T06:34:41;96385.63;;;16.01;100.00
11621;BME280;5866;49.094;11.900;2022-10-16T06:37:09;96383.81;;;16.29;100.00
11621;BME280;5866;49.094;11.900;2022-10-16T06:39:37;96392.56;;;16.44;100.00
11621;BME280;5866;49.094;11.900;2022-10-16T06:42:05;96393.59;;;16.43;100.00
11621;BME280;5866;49.094;11.900;2022-10-16T06:44:34;96395.38;;;16.57;100.00
11621;BME280;5866;49.094;11.900;2022-10-16T06:47:01;96403.81;;;16.54;100.00
11621;BME280;5866;49.094;11.900;2022-10-16T06:49:30;96420.91;;;16.53;100.00
11621;BME280;5866;49.094;11.900;2022-10-16T06:51:57;96410.50;;;16.99;100.00
11621;BME280;5866;49.094;11.900;2022-10-16T06:54:25;96415.91;;;17.06;100.00
11621;BME280;5866;49.094;11.900;2022-10-16T06:56:53;96428.50;;;17.12;100.00
11621;BME280;5866;49.094;11.900;2022-10-16T06:59:20;96426.81;;;17.45;100.00
11621;BME280;5866;49.094;11.900;2022-10-16T07:01:49;96429.38;;;17.60;100.00
11621;BME280;5866;49.094;11.900;2022-10-16T07:04:17;96422.84;;;17.75;100.00
11621;BME280;5866;49.094;11.900;2022-10-16T07:06:44;96422.28;;;17.45;100.00
11621;BME280;5866;49.094;11.900;2022-10-16T07:09:12;96429.19;;;17.55;100.00
11621;BME280;5866;49.094;11.900;2022-10-16T07:11:40;96437.69;;;17.65;100.00
11621;BME280;5866;49.094;11.900;2022-10-16T07:14:14;96443.47;;;17.27;100.00
11621;BME280;5866;49.094;11.900;2022-10-16T07:16:42;96445.31;;;17.27;100.00
11621;BME280;5866;49.094;11.900;2022-10-16T07:19:11;96439.31;;;17.59;100.00
11621;BME280;5866;49.094;11.900;2022-10-16T07:21:41;96442.22;;;17.64;100.00
11621;BME280;5866;49.094;11.900;2022-10-16T07:24:12;96438.56;;;17.78;100.00
11621;BME280;5866;49.094;11.900;2022-10-16T07:26:40;96441.16;;;18.25;100.00
11621;BME280;5866;49.094;11.900;2022-10-16T07:29:13;96432.53;;;18.89;100.00
11621;BME280;5866;49.094;11.900;2022-10-16T07:31:41;96428.72;;;19.42;100.00
11621;BME280;5866;49.094;11.900;2022-10-16T07:34:09;96428.91;;;19.47;100.00
11621;BME280;5866;49.094;11.900;2022-10-16T07:36:38;96433.13;;;19.81;100.00
11621;BME280;5866;49.094;11.900;2022-10-16T07:39:11;96428.00;;;20.73;100.00
11621;BME280;5866;49.094;11.900;2022-10-16T07:41:38;96434.66;;;21.38;100.00
11621;BME280;5866;49.094;11.900;2022-10-16T07:44:06;96436.97;;;21.71;100.00
11621;BME280;5866;49.094;11.900;2022-10-16T07:46:35;96441.78;;;21.87;95.01
11621;BME280;5866;49.094;11.900;2022-10-16T07:49:02;96447.75;;;21.34;100.00
11621;BME280;5866;49.094;11.900;2022-10-16T07:51:30;96458.25;;;21.24;100.00
11621;BME280;5866;49.094;11.900;2022-10-16T07:53:59;96449.22;;;21.55;100.00
11621;BME280;5866;49.094;11.900;2022-10-16T07:56:26;96447.38;;;20.88;100.00
11621;BME280;5866;49.094;11.900;2022-10-16T07:58:54;96455.47;;;20.57;100.00
11621;BME280;5866;49.094;11.900;2022-10-16T08:01:22;96460.84;;;20.57;100.00
11621;BME280;5866;49.094;11.900;2022-10-16T08:03:51;96464.34;;;21.38;100.00
11621;BME280;5866;49.094;11.900;2022-10-16T08:06:21;96465.22;;;21.93;96.51
11621;BME280;5866;49.094;11.900;2022-10-16T08:08:54;96465.22;;;23.63;87.91
11621;BME280;5866;49.094;11.900;2022-10-16T08:11:23;96460.94;;;25.36;67.54
11621;BME280;5866;49.094;11.900;2022-10-16T08:13:50;96456.75;;;26.27;62.35
11621;BME280;5866;49.094;11.900;2022-10-16T08:16:18;96461.91;;;25.63;61.54
11621;BME280;5866;49.094;11.900;2022-10-16T08:18:46;96467.13;;;25.48;63.42
11621;BME280;5866;49.094;11.900;2022-10-16T08:21:15;96479.50;;;24.21;70.35
11621;BME280;5866;49.094;11.900;2022-10-16T08:23:46;96477.22;;;22.98;78.72
11621;BME280;5866;49.094;11.900;2022-10-16T08:26:25;96470.22;;;22.67;80.23
11621;BME280;5866;49.094;11.900;2022-10-16T08:28:53;96476.13;;;21.98;85.72
11621;BME280;5866;49.094;11.900;2022-10-16T08:31:21;96482.75;;;21.23;92.74
11621;BME280;5866;49.094;11.900;2022-10-16T08:33:49;96474.47;;;21.43;93.88
11621;BME280;5866;49.094;11.900;2022-10-16T08:36:18;96468.06;;;21.37;95.35
11621;BME280;5866;49.094;11.900;2022-10-16T08:38:47;96453.78;;;22.39;86.89
11621;BME280;5866;49.094;11.900;2022-10-16T08:41:29;96462.25;;;22.83;83.92
11621;BME280;5866;49.094;11.900;2022-10-16T08:46:56;96465.22;;;23.63;78.35
11621;BME280;5866;49.094;11.900;2022-10-16T08:49:30;96452.28;;;22.96;80.51
11621;BME280;5866;49.094;11.900;2022-10-16T08:51:58;96449.06;;;22.34;86.20
11621;BME280;5866;49.094;11.900;2022-10-16T08:54:29;96455.00;;;21.16;95.57
11621;BME280;5866;49.094;11.900;2022-10-16T08:57:08;96467.09;;;20.26;100.00
11621;BME280;5866;49.094;11.900;2022-10-16T08:59:36;96472.97;;;20.04;100.00
11621;BME280;5866;49.094;11.900;2022-10-16T09:02:22;96480.09;;;19.92;100.00
11621;BME280;5866;49.094;11.900;2022-10-16T09:04:58;96478.75;;;19.56;100.00
11621;BME280;5866;49.094;11.900;2022-10-16T09:07:32;96480.44;;;19.51;100.00
11621;BME280;5866;49.094;11.900;2022-10-16T09:10:14;96484.81;;;19.96;100.00
11621;BME280;5866;49.094;11.900;2022-10-16T09:12:51;96476.16;;;20.32;100.00
11621;BME280;5866;49.094;11.900;2022-10-16T09:15:29;96486.84;;;20.01;100.00
11621;BME280;5866;49.094;11.900;2022-10-16T09:18:03;96486.19;;;20.12;100.00
11621;BME280;5866;49.094;11.900;2022-10-16T09:20:40;96488.00;;;20.87;100.00
11621;BME280;5866;49.094;11.900;2022-10-16T09:23:15;96487.38;;;21.41;100.00
11621;BME280;5866;49.094;11.900;2022-10-16T09:25:45;96489.41;;;21.63;100.00
11621;BME280;5866;49.094;11.900;2022-10-16T09:28:15;96489.25;;;22.31;96.12
11621;BME280;5866;49.094;11.900;2022-10-16T09:30:44;96491.59;;;23.10;85.97
11621;BME280;5866;49.094;11.900;2022-10-16T09:33:12;96504.53;;;24.00;81.17
11621;BME280;5866;49.094;11.900;2022-10-16T09:35:43;96501.66;;;24.58;74.10
11621;BME280;5866;49.094;11.900;2022-10-16T09:38:23;96503.00;;;25.00;70.70
11621;BME280;5866;49.094;11.900;2022-10-16T09:40:51;96509.25;;;24.73;68.85
11621;BME280;5866;49.094;11.900;2022-10-16T09:43:34;96502.50;;;24.19;74.22
11621;BME280;5866;49.094;11.900;2022-10-16T09:46:07;96511.84;;;24.00;76.74
11621;BME280;5866;49.094;11.900;2022-10-16T09:48:37;96506.78;;;24.43;73.56
11621;BME280;5866;49.094;11.900;2022-10-16T09:51:16;96508.63;;;24.82;72.20
11621;BME280;5866;49.094;11.900;2022-10-16T09:53:47;96512.44;;;25.14;70.91
11621;BME280;5866;49.094;11.900;2022-10-16T09:56:22;96516.31;;;25.68;67.46
11621;BME280;5866;49.094;11.900;2022-10-16T09:58:52;96522.56;;;26.24;64.07
11621;BME280;5866;49.094;11.900;2022-10-16T10:01:21;96509.28;;;26.75;63.03
11621;BME280;5866;49.094;11.900;2022-10-16T10:03:49;96511.94;;;26.70;61.31
11621;BME280;5866;49.094;11.900;2022-10-16T10:06:22;96512.59;;;25.74;64.19
11621;BME280;5866;49.094;11.900;2022-10-16T10:09:00;96504.13;;;25.71;65.32
11621;BME280;5866;49.094;11.900;2022-10-16T10:11:48;96509.25;;;25.89;65.83
11621;BME280;5866;49.094;11.900;2022-10-16T10:14:31;96511.25;;;26.58;63.05
11621;BME280;5866;49.094;11.900;2022-10-16T10:17:14;96507.66;;;27.01;58.94
11621;BME280;5866;49.094;11.900;2022-10-16T10:19:47;96511.84;;;27.14;59.22
11621;BME280;5866;49.094;11.900;2022-10-16T10:22:23;96515.66;;;27.39;58.07
11621;BME280;5866;49.094;11.900;2022-10-16T10:25:15;96511.72;;;27.30;56.54
11621;BME280;5866;49.094;11.900;2022-10-16T10:27:57;96508.28;;;27.08;58.14
11621;BME280;5866;49.094;11.900;2022-10-16T10:30:34;96515.28;;;27.04;56.47
11621;BME280;5866;49.094;11.900;2022-10-16T10:33:15;96510.06;;;26.98;58.62
11621;BME280;5866;49.094;11.900;2022-10-16T10:35:53;96514.88;;;26.64;58.61
11621;BME280;5866;49.094;11.900;2022-10-16T10:38:31;96516.16;;;26.13;61.43
11621;BME280;5866;49.094;11.900;2022-10-16T10:41:13;96511.16;;;26.27;61.78
11621;BME280;5866;49.094;11.900;2022-10-16T10:43:53;96510.56;;;26.03;62.11
11621;BME280;5866;49.094;11.900;2022-10-16T10:46:31;96511.72;;;25.52;61.38
11621;BME280;5866;49.094;11.900;2022-10-16T10:49:16;96511.72;;;25.19;65.71
11621;BME280;5866;49.094;11.900;2022-10-16T10:51:56;96512.91;;;24.95;67.17
11621;BME280;5866;49.094;11.900;2022-10-16T10:54:32;96514.44;;;25.19;68.92
11621;BME280;5866;49.094;11.900;2022-10-16T10:57:09;96509.16;;;25.62;64.17
11621;BME280;5866;49.094;11.900;2022-10-16T11:00:10;96501.72;;;25.91;63.81
11621;BME280;5866;49.094;11.900;2022-10-16T11:02:50;96511.78;;;25.74;64.43
11621;BME280;5866;49.094;11.900;2022-10-16T11:05:28;96502.00;;;25.56;62.91
11621;BME280;5866;49.094;11.900;2022-10-16T11:08:00;96508.34;;;25.45;65.34
11621;BME280;5866;49.094;11.900;2022-10-16T11:10:30;96503.88;;;25.39;69.98
11621;BME280;5866;49.094;11.900;2022-10-16T11:13:10;96507.66;;;24.88;69.65
11621;BME280;5866;49.094;11.900;2022-10-16T11:15:42;96512.03;;;25.06;72.12
11621;BME280;5866;49.094;11.900;2022-10-16T11:18:16;96509.00;;;25.19;71.07
11621;BME280;5866;49.094;11.900;2022-10-16T11:20:51;96513.28;;;25.15;69.82
11621;BME280;5866;49.094;11.900;2022-10-16T11:23:24;96510.63;;;25.03;72.89
11621;BME280;5866;49.094;11.900;2022-10-16T11:25:56;96506.34;;;25.07;73.97
11621;BME280;5866;49.094;11.900;2022-10-16T11:28:29;96511.44;;;24.31;77.63
11621;BME280;5866;49.094;11.900;2022-10-16T11:31:02;96508.84;;;24.24;79.61
11621;BME280;5866;49.094;11.900;2022-10-16T11:33:39;96516.44;;;24.11;82.07
11621;BME280;5866;49.094;11.900;2022-10-16T11:36:11;96504.16;;;24.20;82.21
11621;BME280;5866;49.094;11.900;2022-10-16T11:38:44;96501.94;;;24.45;82.19
11621;BME280;5866;49.094;11.900;2022-10-16T11:41:21;96505.97;;;25.32;77.81
11621;BME280;5866;49.094;11.900;2022-10-16T11:43:58;96508.16;;;26.07;69.18
11621;BME280;5866;49.094;11.900;2022-10-16T11:46:35;96518.19;;;26.23;67.42
11621;BME280;5866;49.094;11.900;2022-10-16T11:49:26;96497.41;;;27.13;63.38
11621;BME280;5866;49.094;11.900;2022-10-16T11:52:06;96492.72;;;27.35;58.09
11621;BME280;5866;49.094;11.900;2022-10-16T11:54:42;96489.06;;;26.45;58.68
11621;BME280;5866;49.094;11.900;2022-10-16T11:57:15;96497.03;;;25.86;62.14
11621;BME280;5866;49.094;11.900;2022-10-16T11:59:49;96492.94;;;25.67;64.28
11621;BME280;5866;49.094;11.900;2022-10-16T12:02:35;96495.56;;;26.00;65.23
11621;BME280;5866;49.094;11.900;2022-10-16T12:05:18;96497.72;;;26.85;60.09
11621;BME280;5866;49.094;11.900;2022-10-16T12:07:56;96491.63;;;27.78;55.36
11621;BME280;5866;49.094;11.900;2022-10-16T12:10:29;96495.22;;;27.42;56.35
11621;BME280;5866;49.094;11.900;2022-10-16T12:12:58;96494.22;;;27.53;55.49
11621;BME280;5866;49.094;11.900;2022-10-16T12:15:26;96493.59;;;27.83;54.66
11621;BME280;5866;49.094;11.900;2022-10-16T12:18:21;96503.00;;;28.07;53.34
11621;BME280;5866;49.094;11.900;2022-10-16T12:20:55;96493.28;;;27.37;53.97
11621;BME280;5866;49.094;11.900;2022-10-16T12:23:25;96497.44;;;26.65;56.70
11621;BME280;5866;49.094;11.900;2022-10-16T12:25:54;96502.69;;;26.71;57.20
11621;BME280;5866;49.094;11.900;2022-10-16T12:28:26;96507.03;;;26.94;57.53
11621;BME280;5866;49.094;11.900;2022-10-16T12:30:56;96496.88;;;26.63;55.49
11621;BME280;5866;49.094;11.900;2022-10-16T12:33:26;96504.88;;;25.66;56.07
11621;BME280;5866;49.094;11.900;2022-10-16T12:35:56;96514.38;;;25.85;56.40
11621;BME280;5866;49.094;11.900;2022-10-16T12:38:26;96516.88;;;25.37;55.75
11621;BME280;5866;49.094;11.900;2022-10-16T12:40:59;96520.50;;;25.09;57.07
11621;BME280;5866;49.094;11.900;2022-10-16T12:43:36;96516.41;;;25.73;54.71
11621;BME280;5866;49.094;11.900;2022-10-16T12:46:21;96522.00;;;25.17;55.86
11621;BME280;5866;49.094;11.900;2022-10-16T12:48:49;96515.41;;;24.40;61.01
11621;BME280;5866;49.094;11.900;2022-10-16T12:51:36;96514.25;;;24.36;61.62
11621;BME280;5866;49.094;11.900;2022-10-16T12:54:10;96520.59;;;24.30;59.65
11621;BME280;5866;49.094;11.900;2022-10-16T12:56:51;96520.09;;;25.01;57.91
11621;BME280;5866;49.094;11.900;2022-10-16T12:59:31;96526.91;;;25.86;54.13
11621;BME280;5866;49.094;11.900;2022-10-16T13:02:21;96523.22;;;26.79;51.97
11621;BME280;5866;49.094;11.900;2022-10-16T13:05:06;96527.88;;;27.74;50.39
11621;BME280;5866;49.094;11.900;2022-10-16T13:07:53;96522.53;;;28.36;47.77
11621;BME280;5866;49.094;11.900;2022-10-16T13:10:27;96523.63;;;28.45;48.25
11621;BME280;5866;49.094;11.900;2022-10-16T13:13:09;96521.66;;;28.30;48.00
11621;BME280;5866;49.094;11.900;2022-10-16T13:15:49;96519.69;;;28.67;47.78
11621;BME280;5866;49.094;11.900;2022-10-16T13:18:22;96530.97;;;28.29;47.98